createdAt,value
2018-12-23T00:01:21.291Z,3.27
2018-12-23T00:03:50.871Z,3.10
2018-12-23T00:06:19.602Z,2.90
2018-12-23T00:08:49.721Z,2.83
2018-12-23T00:11:20.728Z,3.33
2018-12-23T00:13:51.194Z,3.00
2018-12-23T00:16:21.216Z,3.30
2018-12-23T00:18:51.287Z,2.90
2018-12-23T00:21:19.811Z,2.80
2018-12-23T00:23:48.174Z,2.90
2018-12-23T00:26:18.694Z,3.30
2018-12-23T00:28:48.691Z,2.90
2018-12-23T00:31:18.047Z,3.10
2018-12-23T00:33:46.602Z,3.00
2018-12-23T00:36:16.470Z,3.00
2018-12-23T00:38:46.185Z,2.72
2018-12-23T00:41:16.761Z,2.80
2018-12-23T00:43:47.609Z,3.30
2018-12-23T00:46:16.753Z,3.15
2018-12-23T00:48:45.192Z,3.27
2018-12-23T00:51:15.000Z,2.90
2018-12-23T00:53:44.696Z,3.22
2018-12-23T00:56:14.820Z,2.83
2018-12-23T00:58:44.756Z,3.27
2018-12-23T01:01:13.280Z,3.00
2018-12-23T01:03:42.742Z,3.30
2018-12-23T01:06:11.755Z,2.90
2018-12-23T02:40:21.326Z,2.75
2018-12-23T02:43:09.557Z,2.70
2018-12-23T02:45:49.806Z,2.70
2018-12-23T02:57:17.474Z,2.70
2018-12-23T03:02:38.242Z,2.40
2018-12-23T03:05:18.364Z,2.45
2018-12-23T03:07:58.789Z,2.30
2018-12-23T03:39:10.622Z,2.35
2018-12-23T04:21:17.784Z,2.30
2018-12-23T04:30:04.207Z,2.45
2018-12-23T05:24:53.293Z,2.42
2018-12-23T05:47:13.236Z,2.40
2018-12-23T07:46:46.221Z,2.15
2018-12-23T13:50:58.359Z,2.10
2018-12-23T13:53:32.995Z,2.00
2018-12-23T13:56:39.319Z,2.12
2018-12-23T13:59:26.160Z,1.92
2018-12-23T14:02:13.219Z,2.20
2018-12-23T14:04:54.457Z,2.10
2018-12-23T14:07:49.058Z,2.12
2018-12-23T14:10:31.353Z,2.40
2018-12-23T14:13:01.123Z,2.10
2018-12-23T14:15:30.413Z,2.15
2018-12-23T14:17:59.562Z,2.05
2018-12-23T14:20:28.866Z,2.02
2018-12-23T14:22:58.130Z,2.20
2018-12-23T14:25:27.408Z,1.80
2018-12-23T14:27:57.339Z,2.00
2018-12-23T14:30:26.714Z,2.05
2018-12-23T14:32:56.258Z,2.10
2018-12-23T14:35:25.593Z,2.20
2018-12-23T14:37:54.879Z,2.00
2018-12-23T14:40:24.074Z,2.08
2018-12-23T14:42:53.307Z,1.95
2018-12-23T14:45:22.858Z,2.40
2018-12-23T14:47:52.215Z,2.30
2018-12-23T14:50:21.473Z,2.15
2018-12-23T14:52:50.838Z,2.00
2018-12-23T14:55:20.245Z,2.22
2018-12-23T14:57:49.499Z,2.05
2018-12-23T15:00:18.806Z,2.50
2018-12-23T15:05:26.646Z,2.08
2018-12-23T15:07:56.799Z,2.25
2018-12-23T15:10:26.306Z,2.25
2018-12-23T15:12:55.694Z,2.50
2018-12-23T15:15:24.857Z,2.47
2018-12-23T15:17:53.995Z,2.42
2018-12-23T15:20:24.473Z,2.50
2018-12-23T15:22:53.682Z,2.90
2018-12-23T15:25:23.832Z,3.00
2018-12-23T15:27:53.994Z,2.95
2018-12-23T15:30:23.358Z,2.95
2018-12-23T15:32:52.709Z,2.80
2018-12-23T15:35:21.979Z,3.10
2018-12-23T15:37:52.291Z,3.20
2018-12-23T15:40:23.140Z,3.12
2018-12-23T15:42:52.494Z,3.10
2018-12-23T15:45:21.818Z,3.00
2018-12-23T15:47:51.200Z,2.80
2018-12-23T15:50:20.543Z,3.05
2018-12-23T15:52:49.859Z,3.15
2018-12-23T15:55:19.255Z,2.95
2018-12-23T15:57:48.701Z,2.65
2018-12-23T16:00:18.057Z,3.12
2018-12-23T16:02:47.510Z,3.42
2018-12-23T16:05:16.760Z,3.50
2018-12-23T16:07:45.986Z,3.15
2018-12-23T16:10:15.263Z,3.37
2018-12-23T16:12:45.123Z,3.72
2018-12-23T16:15:14.419Z,3.20
2018-12-23T16:17:43.847Z,3.50
2018-12-23T16:20:14.531Z,3.80
2018-12-23T16:22:43.980Z,4.25
2018-12-23T16:25:16.029Z,4.15
2018-12-23T16:27:45.309Z,4.65
2018-12-23T16:30:14.584Z,4.78
2018-12-23T16:32:43.979Z,5.00
2018-12-23T16:35:13.281Z,4.90
2018-12-23T16:37:42.637Z,5.15
2018-12-23T16:40:13.231Z,5.05
2018-12-23T16:42:42.760Z,5.50
2018-12-23T16:45:11.901Z,5.20
2018-12-23T16:47:41.197Z,5.53
2018-12-23T16:50:11.046Z,5.67
2018-12-23T16:52:40.594Z,5.08
2018-12-23T16:55:10.005Z,5.28
2018-12-23T16:57:39.573Z,5.67
2018-12-23T17:00:10.582Z,5.80
2018-12-23T17:02:40.630Z,5.40
2018-12-23T17:05:10.280Z,5.28
2018-12-23T17:07:39.928Z,5.50
2018-12-23T17:10:09.672Z,5.53
2018-12-23T17:12:39.242Z,5.72
2018-12-23T17:15:09.377Z,5.42
2018-12-23T17:17:39.336Z,4.97
2018-12-23T17:20:10.646Z,5.30
2018-12-23T17:22:40.815Z,5.08
2018-12-23T17:25:10.736Z,4.87
2018-12-23T17:27:40.778Z,5.12
2018-12-23T17:30:12.287Z,4.50
2018-12-23T17:32:42.761Z,5.35
2018-12-23T17:35:17.464Z,4.90
2018-12-23T17:37:48.008Z,4.70
2018-12-23T17:40:18.500Z,4.62
2018-12-23T17:42:49.124Z,5.03
2018-12-23T17:45:20.440Z,4.67
2018-12-23T17:47:50.485Z,5.30
2018-12-23T17:50:21.008Z,5.30
2018-12-23T17:52:51.658Z,5.30
2018-12-23T17:55:23.697Z,5.53
2018-12-23T17:57:53.664Z,5.42
2018-12-23T18:00:23.951Z,5.67
2018-12-23T18:02:55.969Z,5.80
2018-12-23T18:05:26.275Z,5.90
2018-12-23T18:07:57.827Z,5.20
2018-12-23T18:10:27.898Z,5.30
2018-12-23T18:12:58.254Z,5.45
2018-12-23T18:15:27.790Z,5.20
2018-12-23T18:17:57.717Z,5.20
2018-12-23T18:20:27.105Z,4.87
2018-12-23T18:22:56.555Z,5.33
2018-12-23T18:25:26.767Z,5.35
2018-12-23T18:27:57.178Z,5.03
2018-12-23T18:30:26.671Z,5.30
2018-12-23T18:32:56.376Z,5.40
2018-12-23T18:35:28.328Z,5.22
2018-12-23T18:37:58.335Z,5.33
2018-12-23T18:40:33.279Z,5.10
2018-12-23T18:43:00.874Z,4.72
2018-12-23T18:45:30.856Z,4.80
2018-12-23T18:48:00.297Z,4.80
2018-12-23T18:50:29.798Z,4.67
2018-12-23T18:53:00.604Z,5.03
2018-12-23T18:55:32.406Z,4.60
2018-12-23T18:58:03.257Z,4.10
2018-12-23T19:00:32.668Z,4.58
2018-12-23T19:03:03.120Z,4.45
2018-12-23T19:05:33.526Z,4.87
2018-12-23T19:08:09.582Z,4.30
2018-12-23T19:11:01.386Z,4.28
2018-12-23T19:13:48.898Z,4.00
2018-12-23T19:16:36.680Z,3.95
2018-12-23T19:19:24.287Z,4.60
2018-12-23T19:22:22.540Z,4.30
2018-12-23T19:25:17.912Z,4.03
2018-12-23T19:28:05.149Z,3.92
2018-12-23T19:30:52.810Z,3.80
2018-12-23T19:33:44.288Z,3.92
2018-12-23T19:36:48.394Z,3.85
2018-12-23T19:39:40.426Z,4.47
2018-12-23T19:42:42.047Z,4.15
2018-12-23T19:45:37.468Z,3.87
2018-12-23T19:48:27.968Z,3.92
2018-12-23T19:51:07.928Z,3.87
2018-12-23T19:53:55.628Z,3.80
2018-12-23T19:56:43.595Z,3.50
2018-12-23T19:59:47.472Z,3.80
2018-12-23T20:02:24.282Z,3.40
2018-12-23T20:05:19.632Z,3.95
2018-12-23T20:08:07.962Z,3.65
2018-12-23T20:10:59.232Z,3.25
2018-12-23T20:13:40.114Z,3.58
2018-12-23T20:16:31.941Z,3.35
2018-12-23T20:19:25.599Z,3.60
2018-12-23T20:22:20.972Z,3.67
2018-12-23T20:25:22.183Z,3.50
2018-12-23T20:28:14.445Z,3.55
2018-12-23T20:31:13.333Z,3.20
2018-12-23T20:34:13.846Z,3.08
2018-12-23T20:37:02.734Z,3.42
2018-12-23T20:40:09.018Z,3.47
2018-12-23T20:42:44.192Z,3.22
2018-12-23T20:45:36.479Z,3.30
2018-12-23T20:48:10.769Z,3.15
2018-12-23T20:50:59.089Z,3.02
2018-12-23T20:53:47.933Z,3.20
2018-12-23T20:56:43.415Z,3.02
2018-12-23T20:59:24.948Z,3.35
2018-12-23T21:02:11.987Z,2.80
2018-12-23T21:05:16.356Z,3.40
2018-12-23T21:08:10.530Z,2.85
2018-12-23T21:10:58.504Z,3.12
2018-12-23T21:13:46.537Z,3.10
2018-12-23T21:16:47.788Z,3.00
2018-12-23T21:19:36.790Z,2.90
2018-12-23T21:22:19.886Z,2.95
2018-12-23T21:25:11.284Z,2.85
2018-12-23T21:27:59.037Z,3.02
2018-12-23T21:30:47.908Z,2.70
2018-12-23T21:33:22.642Z,3.02
2018-12-23T21:36:15.806Z,2.92
2018-12-23T21:39:02.580Z,2.70
2018-12-23T21:41:50.495Z,2.83
2018-12-23T21:44:31.348Z,2.65
2018-12-23T21:47:20.317Z,3.02
2018-12-23T21:50:17.338Z,3.05
2018-12-23T21:52:59.009Z,2.70
2018-12-23T21:55:47.641Z,3.05
2018-12-23T21:58:27.394Z,2.72
2018-12-23T22:01:07.495Z,3.10
2018-12-23T22:03:49.519Z,3.05
2018-12-23T22:06:44.829Z,3.25
2018-12-23T22:09:28.847Z,2.95
2018-12-23T22:12:07.975Z,2.70
2018-12-23T22:14:37.749Z,2.70
2018-12-23T22:17:09.206Z,2.80
2018-12-23T22:19:41.111Z,2.70
2018-12-23T22:22:11.667Z,2.65
2018-12-23T22:24:41.067Z,2.70
2018-12-23T22:27:10.887Z,2.90
2018-12-23T22:29:42.886Z,2.70
2018-12-23T22:32:12.772Z,2.62
2018-12-23T22:34:42.807Z,3.00
2018-12-23T22:37:12.760Z,2.85
2018-12-23T22:39:42.266Z,2.85
2018-12-23T22:42:11.728Z,3.00
2018-12-23T22:44:42.110Z,2.70
2018-12-23T22:47:11.416Z,2.72
2018-12-23T22:49:40.553Z,2.70
2018-12-23T22:52:09.819Z,2.67
2018-12-23T22:54:39.288Z,2.50
2018-12-23T22:57:09.236Z,2.70
2018-12-23T22:59:38.818Z,2.62
2018-12-23T23:02:09.600Z,2.58
2018-12-23T23:04:38.717Z,2.70
2018-12-23T23:07:07.839Z,2.25
2018-12-23T23:09:36.996Z,2.52
2018-12-23T23:12:06.152Z,2.60
2018-12-23T23:14:36.222Z,2.45
2018-12-23T23:17:06.600Z,2.50
2018-12-23T23:19:35.780Z,2.45
2018-12-23T23:22:05.008Z,2.42
2018-12-23T23:24:34.383Z,2.52
2018-12-23T23:27:03.434Z,2.33
2018-12-23T23:29:32.649Z,2.37
2018-12-23T23:32:01.855Z,2.47
2018-12-23T23:34:31.366Z,2.30
2018-12-23T23:37:00.520Z,2.20
2018-12-23T23:39:29.740Z,2.15
2018-12-23T23:42:00.088Z,2.60
2018-12-23T23:44:29.221Z,2.08
2018-12-23T23:46:58.479Z,2.33
2018-12-23T23:49:27.690Z,2.52
2018-12-23T23:51:57.875Z,2.50
2018-12-23T23:54:26.946Z,2.40
2018-12-23T23:56:56.135Z,2.47
2018-12-23T23:59:25.344Z,2.20
